Time;durP1;ratioP1;P1;durP2;ratioP2;P2;SDS_P1;SDS_P2;PMS_P1;PMS_P2;Temp;Humidity;BMP_temperature;BMP_pressure;BME280_temperature;BME280_humidity;BME280_pressure;Samples;Min_cycle;Max_cycle;Signal;HPM_P1;HPM_P2
2021/01/02 00:05:06;;;;;;;14.90;13.30;;;4.30;99.90;;;;;;10477630;28;20228;-85
2021/01/02 00:10:11;;;;;;;16.13;13.27;;;4.40;99.90;;;;;;10496688;28;20215;-83
2021/01/02 00:15:17;;;;;;;14.63;13.13;;;4.40;99.90;;;;;;10512820;28;20213;-85
2021/01/02 00:20:41;;;;;;;16.30;14.60;;;4.40;99.90;;;;;;10496443;28;20208;-85
2021/01/02 00:25:52;;;;;;;14.90;13.33;;;4.40;99.90;;;;;;10488528;28;20225;-84
2021/01/02 00:31:50;;;;;;;17.10;13.63;;;4.40;99.90;;;;;;10438282;28;20229;-84
2021/01/02 00:37:01;;;;;;;14.67;12.60;;;4.40;99.90;;;;;;10492403;28;20306;-85
2021/01/02 00:42:05;;;;;;;13.63;11.97;;;4.50;99.90;;;;;;10531891;28;20231;-84
2021/01/02 00:47:07;;;;;;;15.23;12.50;;;4.50;99.90;;;;;;10536722;28;20219;-84
2021/01/02 00:52:16;;;;;;;16.40;13.67;;;4.50;99.90;;;;;;10537208;28;20227;-84
2021/01/02 00:57:37;;;;;;;15.80;13.87;;;4.50;99.90;;;;;;10507171;28;20201;-84
2021/01/02 01:02:57;;;;;;;14.27;12.87;;;4.50;99.90;;;;;;10491075;28;20228;-84
2021/01/02 01:07:59;;;;;;;14.37;12.87;;;4.50;99.90;;;;;;10492581;28;20283;-86
2021/01/02 01:13:05;;;;;;;14.20;12.80;;;4.50;99.90;;;;;;10495382;28;20220;-84
2021/01/02 01:18:34;;;;;;;12.57;11.27;;;4.50;99.90;;;;;;10495472;28;20249;-85
2021/01/02 01:23:55;;;;;;;14.57;12.87;;;4.50;99.90;;;;;;10472556;28;20563;-84
2021/01/02 01:28:59;;;;;;;15.27;13.77;;;4.60;99.90;;;;;;10486665;28;20575;-85
2021/01/02 01:34:09;;;;;;;16.63;14.60;;;4.60;99.90;;;;;;10507098;28;20221;-84
2021/01/02 01:39:13;;;;;;;15.90;14.30;;;4.60;99.90;;;;;;10492362;28;20200;-84
2021/01/02 01:44:44;;;;;;;15.00;13.40;;;4.60;99.90;;;;;;10475395;28;20228;-84
2021/01/02 01:50:16;;;;;;;16.80;14.97;;;4.60;99.90;;;;;;10490683;28;20203;-83
2021/01/02 01:55:20;;;;;;;15.70;14.10;;;4.70;99.90;;;;;;10477278;28;20265;-82
2021/01/02 02:00:29;;;;;;;16.27;14.57;;;4.70;99.90;;;;;;10507192;28;20273;-85
2021/01/02 02:05:50;;;;;;;17.03;14.93;;;4.80;99.90;;;;;;10490846;28;20247;-83
2021/01/02 02:11:04;;;;;;;17.30;15.10;;;4.80;99.90;;;;;;10477151;28;20231;-83
2021/01/02 02:16:11;;;;;;;16.60;14.80;;;4.90;99.90;;;;;;10476115;28;20220;-83
2021/01/02 02:21:27;;;;;;;16.03;14.33;;;4.90;99.90;;;;;;10475868;28;20258;-83
2021/01/02 02:26:32;;;;;;;19.40;15.90;;;4.90;99.90;;;;;;10492243;28;20302;-83
2021/01/02 02:31:40;;;;;;;19.63;16.10;;;4.90;99.90;;;;;;10477068;28;20228;-83
2021/01/02 02:36:42;;;;;;;17.07;15.27;;;4.90;99.90;;;;;;10497791;28;20314;-84
2021/01/02 02:41:49;;;;;;;17.97;15.40;;;4.90;99.90;;;;;;10476273;28;20293;-84
2021/01/02 02:46:57;;;;;;;18.80;16.07;;;4.90;99.90;;;;;;10492015;28;20231;-83
2021/01/02 02:52:08;;;;;;;18.67;15.63;;;4.90;99.90;;;;;;10476042;28;20224;-84
2021/01/02 02:57:12;;;;;;;21.23;17.20;;;4.90;99.90;;;;;;10454581;28;20225;-83
2021/01/02 03:02:15;;;;;;;18.57;16.57;;;4.90;99.90;;;;;;10451570;28;20213;-85
2021/01/02 03:07:17;;;;;;;16.97;15.17;;;4.90;99.90;;;;;;10434864;28;20607;-84
2021/01/02 03:12:19;;;;;;;19.90;16.20;;;4.90;99.90;;;;;;10434913;28;20217;-83
2021/01/02 03:17:21;;;;;;;19.50;16.50;;;4.80;99.90;;;;;;10436678;28;20674;-83
2021/01/02 03:22:23;;;;;;;16.83;14.73;;;4.80;99.90;;;;;;10438854;28;20611;-83
2021/01/02 03:27:27;;;;;;;20.10;17.07;;;4.80;99.90;;;;;;10453834;28;20227;-84
2021/01/02 03:32:30;;;;;;;18.37;16.23;;;4.80;99.90;;;;;;10442480;28;20260;-84
2021/01/02 03:37:33;;;;;;;17.30;15.50;;;4.70;99.90;;;;;;10481848;28;20657;-82
2021/01/02 03:42:37;;;;;;;20.20;16.93;;;4.80;99.90;;;;;;10501211;28;20231;-83
2021/01/02 03:47:46;;;;;;;17.67;15.77;;;4.70;99.90;;;;;;10476827;28;20286;-84
2021/01/02 03:52:51;;;;;;;18.00;15.90;;;4.70;99.90;;;;;;10480973;28;20265;-82
2021/01/02 03:57:53;;;;;;;17.20;15.13;;;4.70;99.90;;;;;;10486753;28;20271;-83
2021/01/02 04:02:55;;;;;;;17.20;15.40;;;4.70;99.90;;;;;;10478876;28;20231;-83
2021/01/02 04:07:57;;;;;;;16.77;15.07;;;4.80;99.90;;;;;;10476141;28;20213;-83
2021/01/02 04:13:02;;;;;;;18.07;16.10;;;4.80;99.90;;;;;;10482222;28;20703;-85
2021/01/02 04:18:05;;;;;;;17.00;15.20;;;4.80;99.90;;;;;;10479197;28;20657;-84
2021/01/02 04:23:07;;;;;;;17.63;15.70;;;4.80;99.90;;;;;;10478868;28;20309;-82
2021/01/02 04:28:10;;;;;;;17.50;15.63;;;4.70;99.90;;;;;;10496011;28;20221;-82
2021/01/02 04:33:12;;;;;;;17.17;15.40;;;4.70;99.90;;;;;;10497180;28;20224;-85
2021/01/02 04:38:19;;;;;;;16.97;14.77;;;4.70;99.90;;;;;;10488544;28;20224;-83
2021/01/02 04:43:21;;;;;;;15.73;14.23;;;4.70;99.90;;;;;;10483113;28;20228;-84
2021/01/02 04:48:24;;;;;;;17.67;15.30;;;4.60;99.90;;;;;;10478965;28;20217;-83
2021/01/02 04:53:26;;;;;;;18.77;15.60;;;4.50;99.90;;;;;;10506047;28;20219;-83
2021/01/02 04:58:34;;;;;;;18.10;16.27;;;4.40;99.90;;;;;;10485424;28;20196;-83
2021/01/02 05:03:43;;;;;;;17.73;15.83;;;4.30;99.90;;;;;;10501892;28;20217;-84
2021/01/02 05:08:44;;;;;;;19.00;17.00;;;4.30;99.90;;;;;;10495164;28;20676;-83
2021/01/02 05:13:49;;;;;;;19.73;17.63;;;4.30;99.90;;;;;;10488099;28;20293;-84
2021/01/02 05:18:58;;;;;;;18.60;16.70;;;4.30;99.90;;;;;;10495634;28;20185;-84
2021/01/02 05:24:14;;;;;;;22.20;18.13;;;4.40;99.90;;;;;;10462870;28;20204;-83
2021/01/02 05:29:21;;;;;;;21.37;19.03;;;4.40;99.90;;;;;;10478365;28;20622;-83
2021/01/02 05:34:25;;;;;;;24.67;19.03;;;4.40;99.90;;;;;;10475426;28;20226;-83
2021/01/02 05:39:40;;;;;;;23.70;17.57;;;4.50;99.90;;;;;;10480199;28;20291;-84
2021/01/02 05:44:42;;;;;;;23.23;18.43;;;4.50;99.90;;;;;;10460968;28;20701;-83
2021/01/02 05:49:59;;;;;;;23.00;17.97;;;4.50;99.90;;;;;;10482642;28;20292;-84
2021/01/02 05:55:00;;;;;;;25.90;19.70;;;4.50;99.90;;;;;;10458369;28;20215;-82
2021/01/02 06:00:03;;;;;;;24.83;19.30;;;4.50;99.90;;;;;;10463467;28;20562;-84
2021/01/02 06:05:09;;;;;;;25.17;19.73;;;4.50;99.90;;;;;;10478328;28;20240;-83
2021/01/02 06:10:11;;;;;;;27.00;19.50;;;4.40;99.90;;;;;;10490889;28;20217;-83
2021/01/02 06:15:18;;;;;;;30.07;21.40;;;4.40;99.90;;;;;;10460390;28;20243;-83
2021/01/02 06:20:20;;;;;;;31.00;20.80;;;4.30;99.90;;;;;;10456989;28;20194;-84
2021/01/02 06:25:22;;;;;;;29.10;19.80;;;4.30;99.90;;;;;;10476517;28;20751;-84
2021/01/02 06:30:24;;;;;;;30.37;21.67;;;4.30;99.90;;;;;;10483669;28;20231;-83
2021/01/02 06:35:29;;;;;;;33.00;20.97;;;4.30;99.90;;;;;;10490383;28;20478;-83
2021/01/02 06:40:42;;;;;;;32.20;20.50;;;4.30;99.90;;;;;;10490226;28;20188;-83
2021/01/02 06:45:58;;;;;;;32.93;22.00;;;4.30;99.90;;;;;;10496589;28;20758;-83
2021/01/02 06:51:03;;;;;;;31.20;20.37;;;4.40;99.90;;;;;;10489026;28;20254;-83
2021/01/02 06:56:06;;;;;;;29.00;21.50;;;4.40;99.90;;;;;;10516038;28;20197;-82
2021/01/02 07:01:09;;;;;;;29.07;20.63;;;4.40;99.90;;;;;;10494128;28;20213;-83
2021/01/02 07:06:25;;;;;;;25.43;19.57;;;4.30;99.90;;;;;;10492781;28;20266;-84
2021/01/02 07:11:34;;;;;;;24.37;17.90;;;4.40;99.90;;;;;;10494213;28;20205;-83
2021/01/02 07:16:36;;;;;;;22.80;16.97;;;4.30;99.90;;;;;;10513318;28;21193;-82
2021/01/02 07:21:41;;;;;;;21.57;16.70;;;4.40;99.90;;;;;;10515929;28;20587;-83
2021/01/02 07:26:43;;;;;;;24.03;17.63;;;4.30;99.90;;;;;;10520714;28;20223;-83
2021/01/02 07:31:45;;;;;;;19.53;15.57;;;4.30;99.90;;;;;;10476174;28;20304;-83
2021/01/02 07:36:50;;;;;;;21.63;17.00;;;4.30;99.90;;;;;;10482484;28;20213;-83
2021/01/02 07:41:55;;;;;;;22.10;16.07;;;4.40;99.90;;;;;;10498704;28;20224;-83
2021/01/02 07:47:01;;;;;;;22.07;16.83;;;4.40;99.90;;;;;;10492906;28;20220;-83
2021/01/02 07:52:04;;;;;;;23.50;17.60;;;4.40;99.90;;;;;;10486147;28;20216;-84
2021/01/02 07:57:12;;;;;;;22.47;17.53;;;4.40;99.90;;;;;;10504948;28;20211;-84
2021/01/02 08:02:21;;;;;;;20.53;15.70;;;4.40;99.90;;;;;;10499128;28;20641;-83
2021/01/02 08:07:24;;;;;;;23.30;16.90;;;4.30;99.90;;;;;;10527472;28;20213;-84
2021/01/02 08:12:26;;;;;;;21.23;16.43;;;4.20;99.90;;;;;;10538330;28;20700;-84
2021/01/02 08:17:39;;;;;;;21.03;16.50;;;4.30;99.90;;;;;;10543224;28;20652;-83
2021/01/02 08:22:41;;;;;;;21.20;16.20;;;4.40;99.90;;;;;;10525792;28;20222;-84
2021/01/02 08:27:47;;;;;;;19.10;16.07;;;4.40;99.90;;;;;;10546992;28;20311;-84
2021/01/02 08:32:52;;;;;;;22.57;17.10;;;4.50;99.90;;;;;;10509745;28;20216;-84
2021/01/02 08:38:03;;;;;;;23.63;17.63;;;4.50;99.90;;;;;;10501264;28;20228;-84
2021/01/02 08:43:05;;;;;;;21.17;16.03;;;4.50;99.90;;;;;;10526716;28;20228;-84
2021/01/02 08:48:09;;;;;;;22.43;16.30;;;4.60;99.90;;;;;;10529620;28;20214;-84
2021/01/02 08:53:25;;;;;;;22.50;15.83;;;4.60;99.90;;;;;;10514674;28;20675;-84
2021/01/02 08:58:33;;;;;;;22.47;17.83;;;4.60;99.90;;;;;;10536337;28;20222;-83
2021/01/02 09:03:35;;;;;;;24.70;18.20;;;4.60;99.90;;;;;;10498483;28;20223;-84
2021/01/02 09:08:37;;;;;;;23.97;17.30;;;4.60;99.90;;;;;;10498551;28;20279;-83
2021/01/02 09:13:39;;;;;;;23.00;16.90;;;4.60;99.90;;;;;;10517748;28;20224;-84
2021/01/02 09:18:43;;;;;;;17.20;15.10;;;4.50;99.90;;;;;;10505202;28;20273;-84
2021/01/02 09:23:47;;;;;;;22.20;16.13;;;4.40;99.90;;;;;;10512055;28;20209;-83
2021/01/02 09:28:49;;;;;;;18.20;15.10;;;4.50;99.90;;;;;;10497017;28;20197;-85
2021/01/02 09:33:52;;;;;;;21.03;15.90;;;4.60;99.90;;;;;;10494841;28;20303;-84
2021/01/02 09:38:54;;;;;;;21.83;17.30;;;4.70;99.90;;;;;;10501294;28;20201;-84
2021/01/02 09:43:58;;;;;;;23.73;17.70;;;4.70;99.90;;;;;;10476019;28;20271;-84
2021/01/02 09:49:00;;;;;;;20.17;17.03;;;4.80;99.90;;;;;;10478434;28;20574;-83
2021/01/02 09:54:01;;;;;;;23.70;18.27;;;4.80;99.90;;;;;;10485696;28;20681;-84
2021/01/02 09:59:04;;;;;;;22.80;17.90;;;4.80;99.90;;;;;;10481220;28;20287;-83
2021/01/02 10:04:05;;;;;;;23.70;18.37;;;4.80;99.90;;;;;;10500553;28;20576;-84
2021/01/02 10:09:07;;;;;;;22.07;16.93;;;4.80;99.90;;;;;;10506430;28;20197;-83
2021/01/02 10:14:09;;;;;;;20.80;17.73;;;4.80;99.90;;;;;;10481976;28;20358;-84
2021/01/02 10:19:11;;;;;;;24.27;17.93;;;4.80;99.90;;;;;;10477691;28;20293;-83
2021/01/02 10:24:13;;;;;;;22.60;17.83;;;4.80;99.90;;;;;;10509688;28;20240;-83
2021/01/02 10:29:15;;;;;;;24.87;18.57;;;4.90;99.90;;;;;;10484997;28;20247;-83
2021/01/02 10:34:17;;;;;;;22.10;17.13;;;5.00;99.90;;;;;;10496725;28;20269;-83
2021/01/02 10:39:19;;;;;;;20.50;16.40;;;5.10;99.90;;;;;;10489938;28;20356;-83
2021/01/02 10:44:22;;;;;;;22.00;17.57;;;5.20;99.90;;;;;;10485064;28;20246;-83
2021/01/02 10:49:23;;;;;;;22.70;17.97;;;5.40;99.90;;;;;;10491231;28;20192;-84
2021/01/02 10:54:25;;;;;;;19.70;16.00;;;5.40;99.90;;;;;;10511536;28;20688;-84
2021/01/02 10:59:27;;;;;;;17.70;15.10;;;5.50;99.90;;;;;;10491492;28;20241;-84
2021/01/02 11:04:29;;;;;;;18.60;16.57;;;5.50;99.90;;;;;;10491245;28;20312;-84
2021/01/02 11:09:31;;;;;;;19.10;15.93;;;5.50;99.90;;;;;;10495566;28;20239;-83
2021/01/02 11:14:33;;;;;;;19.70;16.17;;;5.50;99.90;;;;;;10506224;28;20219;-84
2021/01/02 11:19:35;;;;;;;19.50;16.77;;;5.50;99.90;;;;;;10484510;28;20296;-83
2021/01/02 11:24:41;;;;;;;17.57;15.30;;;5.60;99.90;;;;;;10497935;28;20578;-83
2021/01/02 11:29:45;;;;;;;17.47;15.00;;;5.50;99.90;;;;;;10501052;28;20610;-84
2021/01/02 11:34:46;;;;;;;18.70;15.70;;;5.50;99.90;;;;;;10514311;28;20217;-84
2021/01/02 11:39:48;;;;;;;18.43;16.07;;;5.60;99.90;;;;;;10507123;28;20200;-83
2021/01/02 11:44:51;;;;;;;16.87;14.90;;;5.70;99.90;;;;;;10482839;28;20231;-84
2021/01/02 11:49:52;;;;;;;20.70;17.20;;;5.60;99.90;;;;;;10486784;28;20199;-83
2021/01/02 11:54:54;;;;;;;20.87;17.50;;;5.50;99.90;;;;;;10483528;28;20220;-83
2021/01/02 11:59:59;;;;;;;18.60;16.07;;;5.40;99.90;;;;;;10502613;28;20291;-83
2021/01/02 12:05:01;;;;;;;18.83;16.90;;;5.40;99.90;;;;;;10483087;28;20243;-84
2021/01/02 12:10:05;;;;;;;16.97;15.17;;;5.50;99.90;;;;;;10464125;28;20216;-83
2021/01/02 12:15:09;;;;;;;17.33;15.37;;;5.60;99.90;;;;;;10484295;28;20320;-85
2021/01/02 12:20:11;;;;;;;17.47;14.67;;;5.60;99.90;;;;;;10458072;28;20621;-84
2021/01/02 12:25:14;;;;;;;18.90;15.40;;;5.60;99.90;;;;;;10475363;28;20629;-83
2021/01/02 12:30:18;;;;;;;16.70;14.33;;;5.50;99.90;;;;;;10464799;28;20291;-83
2021/01/02 12:35:20;;;;;;;17.77;15.57;;;5.40;99.90;;;;;;10509671;28;20251;-83
2021/01/02 12:40:22;;;;;;;18.20;14.57;;;5.40;99.90;;;;;;10532137;28;20204;-82
2021/01/02 12:45:24;;;;;;;17.63;15.63;;;5.40;99.90;;;;;;10546945;28;20260;-82
2021/01/02 12:50:26;;;;;;;17.47;15.37;;;5.40;99.90;;;;;;10535881;28;20611;-83
2021/01/02 12:55:27;;;;;;;18.87;15.23;;;5.50;99.90;;;;;;10530194;28;20288;-83
2021/01/02 13:00:30;;;;;;;16.10;14.40;;;5.50;99.60;;;;;;10536021;28;20259;-83
2021/01/02 13:05:31;;;;;;;16.33;14.60;;;5.40;99.90;;;;;;10493573;28;20600;-83
2021/01/02 13:10:34;;;;;;;21.70;17.20;;;5.30;99.90;;;;;;10514992;28;20203;-83
2021/01/02 13:15:36;;;;;;;20.90;16.07;;;5.40;99.90;;;;;;10510615;28;20204;-82
2021/01/02 13:20:38;;;;;;;20.53;17.07;;;5.40;99.90;;;;;;10529862;28;20660;-82
2021/01/02 13:25:40;;;;;;;17.77;15.30;;;5.40;99.90;;;;;;10527092;28;20225;-83
2021/01/02 13:30:42;;;;;;;18.53;16.00;;;5.50;99.90;;;;;;10489117;28;20311;-83
2021/01/02 13:35:44;;;;;;;21.27;16.17;;;5.50;99.90;;;;;;10487535;28;20293;-82
2021/01/02 13:40:48;;;;;;;18.30;15.70;;;5.50;99.90;;;;;;10488408;28;20201;-83
2021/01/02 13:45:51;;;;;;;18.13;16.20;;;5.50;99.70;;;;;;10474858;28;20255;-83
2021/01/02 13:50:53;;;;;;;21.00;16.00;;;5.60;99.90;;;;;;10490850;28;20224;-83
2021/01/02 13:55:55;;;;;;;19.27;16.23;;;5.60;99.90;;;;;;10469188;28;20204;-82
2021/01/02 14:00:57;;;;;;;17.07;14.87;;;5.60;99.50;;;;;;10473354;28;20208;-83
2021/01/02 14:05:59;;;;;;;18.37;15.47;;;5.50;99.60;;;;;;10489786;28;20213;-82
2021/01/02 14:11:01;;;;;;;20.10;16.47;;;5.40;99.80;;;;;;10477206;28;20263;-83
2021/01/02 14:16:07;;;;;;;15.63;13.93;;;5.40;99.80;;;;;;10474812;28;20228;-82
2021/01/02 14:21:08;;;;;;;28.07;22.50;;;5.40;99.50;;;;;;10472814;28;20351;-83
2021/01/02 14:26:15;;;;;;;17.10;13.60;;;5.40;99.90;;;;;;10486701;28;20286;-84
2021/01/02 14:31:17;;;;;;;13.40;12.00;;;5.40;99.80;;;;;;10501090;28;20251;-83
2021/01/02 14:36:19;;;;;;;14.47;12.73;;;5.40;99.30;;;;;;10528168;28;20683;-84
2021/01/02 14:41:22;;;;;;;14.00;12.33;;;5.40;98.80;;;;;;10516344;28;20315;-83
2021/01/02 14:46:29;;;;;;;13.87;11.93;;;5.40;98.50;;;;;;10477429;28;20846;-83
2021/01/02 14:51:33;;;;;;;13.80;12.23;;;5.30;98.80;;;;;;10484880;28;20286;-83
2021/01/02 14:56:35;;;;;;;16.00;13.10;;;5.40;99.00;;;;;;10473418;28;20661;-83
2021/01/02 15:01:39;;;;;;;14.70;12.70;;;5.40;98.40;;;;;;10527308;28;20625;-82
2021/01/02 15:06:40;;;;;;;13.60;12.10;;;5.40;98.80;;;;;;10493977;28;20721;-82
2021/01/02 15:11:43;;;;;;;12.33;11.03;;;5.40;99.00;;;;;;10496685;28;20303;-82
2021/01/02 15:16:45;;;;;;;13.23;11.90;;;5.50;98.40;;;;;;10477302;28;20201;-82
2021/01/02 15:21:47;;;;;;;12.53;11.27;;;5.50;98.90;;;;;;10488876;28;20216;-83
2021/01/02 15:26:49;;;;;;;14.13;12.07;;;5.50;99.00;;;;;;10481537;28;20271;-81
2021/01/02 15:31:51;;;;;;;12.20;10.90;;;5.50;98.90;;;;;;10496317;28;20213;-82
2021/01/02 15:36:53;;;;;;;13.80;12.40;;;5.50;98.70;;;;;;10502171;28;20669;-82
2021/01/02 15:41:56;;;;;;;13.23;11.83;;;5.50;99.00;;;;;;10491576;28;20232;-82
2021/01/02 15:47:01;;;;;;;13.20;11.80;;;5.50;98.80;;;;;;10500536;28;20622;-82
2021/01/02 15:52:06;;;;;;;13.60;11.87;;;5.50;98.70;;;;;;10480197;28;20221;-83
2021/01/02 15:57:08;;;;;;;11.93;10.63;;;5.50;98.40;;;;;;10479163;28;20234;-82
2021/01/02 16:02:11;;;;;;;11.23;10.13;;;5.50;97.60;;;;;;10500863;28;20219;-82
2021/01/02 16:07:14;;;;;;;13.10;11.10;;;5.50;98.00;;;;;;10501052;28;20546;-82
2021/01/02 16:12:15;;;;;;;12.70;11.40;;;5.50;98.50;;;;;;10467846;28;20303;-82
2021/01/02 16:17:18;;;;;;;12.30;11.00;;;5.40;98.10;;;;;;10480588;28;20215;-82
2021/01/02 16:22:20;;;;;;;13.87;11.67;;;5.40;98.30;;;;;;10485825;28;20213;-82
2021/01/02 16:27:21;;;;;;;12.37;11.17;;;5.40;98.10;;;;;;10483715;28;20299;-82
2021/01/02 16:32:25;;;;;;;12.83;11.50;;;5.40;98.30;;;;;;10496974;28;20624;-83
2021/01/02 16:37:28;;;;;;;12.03;10.90;;;5.40;98.20;;;;;;10501729;28;20200;-82
2021/01/02 16:42:33;;;;;;;12.43;11.13;;;5.40;98.30;;;;;;10486296;28;20227;-82
2021/01/02 16:47:36;;;;;;;12.20;10.83;;;5.40;97.60;;;;;;10475068;28;20252;-83
2021/01/02 16:52:37;;;;;;;13.37;11.97;;;5.40;97.70;;;;;;10492039;28;20244;-83
2021/01/02 16:57:39;;;;;;;11.60;10.40;;;5.40;96.60;;;;;;10482604;28;20650;-83
2021/01/02 17:02:41;;;;;;;13.63;11.70;;;5.30;97.10;;;;;;10491326;28;20239;-83
2021/01/02 17:07:43;;;;;;;14.10;12.70;;;5.40;96.80;;;;;;10524466;28;20250;-83
2021/01/02 17:12:48;;;;;;;11.20;10.07;;;5.40;96.70;;;;;;10500583;28;20247;-84
2021/01/02 17:17:50;;;;;;;11.60;10.50;;;5.40;96.10;;;;;;10554325;28;20266;-83
2021/01/02 17:22:52;;;;;;;11.83;10.63;;;5.30;96.20;;;;;;10560036;28;20234;-82
2021/01/02 17:27:54;;;;;;;12.00;10.70;;;5.30;96.50;;;;;;10476424;28;20235;-83
2021/01/02 17:32:56;;;;;;;10.97;9.97;;;5.30;96.30;;;;;;10479741;28;20220;-83
2021/01/02 17:37:58;;;;;;;12.50;11.20;;;5.30;96.60;;;;;;10503152;28;20294;-83
2021/01/02 17:42:59;;;;;;;13.90;12.17;;;5.30;96.20;;;;;;10496140;28;20220;-82
2021/01/02 17:48:02;;;;;;;12.87;11.67;;;5.30;96.80;;;;;;10490952;28;20227;-83
2021/01/02 17:53:04;;;;;;;12.70;11.40;;;5.30;96.90;;;;;;10500852;28;20701;-83
2021/01/02 17:58:09;;;;;;;13.97;12.60;;;5.30;96.50;;;;;;10516364;28;20712;-83
2021/01/02 18:03:12;;;;;;;14.03;11.77;;;5.30;96.70;;;;;;10500585;28;20227;-83
2021/01/02 18:08:13;;;;;;;13.40;12.10;;;5.30;96.70;;;;;;10491864;28;20311;-82
2021/01/02 18:13:15;;;;;;;13.30;11.93;;;5.30;96.90;;;;;;10497370;28;20224;-83
2021/01/02 18:18:18;;;;;;;13.40;11.97;;;5.40;97.10;;;;;;10492469;28;20192;-83
2021/01/02 18:23:20;;;;;;;13.97;12.57;;;5.40;96.50;;;;;;10519341;28;20220;-82
2021/01/02 18:28:21;;;;;;;13.87;12.40;;;5.40;96.40;;;;;;10469799;28;20508;-83
2021/01/02 18:33:24;;;;;;;14.33;12.83;;;5.40;96.20;;;;;;10499662;28;20692;-83
2021/01/02 18:38:25;;;;;;;13.60;12.30;;;5.40;96.90;;;;;;10504871;28;20189;-83
2021/01/02 18:43:29;;;;;;;14.30;11.83;;;5.40;97.00;;;;;;10476658;28;20229;-83
2021/01/02 18:48:32;;;;;;;13.83;12.43;;;5.40;97.10;;;;;;10491122;28;20294;-82
2021/01/02 18:53:34;;;;;;;14.23;12.70;;;5.40;97.40;;;;;;10486947;28;20303;-83
2021/01/02 18:58:37;;;;;;;13.80;12.40;;;5.40;97.40;;;;;;10500238;28;20185;-83
2021/01/02 19:03:39;;;;;;;14.67;13.10;;;5.40;97.30;;;;;;10489629;28;20637;-81
2021/01/02 19:08:41;;;;;;;15.47;13.97;;;5.40;97.40;;;;;;10485693;28;20265;-82
2021/01/02 19:13:43;;;;;;;14.60;13.10;;;5.40;97.80;;;;;;10495067;28;20316;-82
2021/01/02 19:18:45;;;;;;;14.93;13.30;;;5.40;98.00;;;;;;10501074;28;20192;-84
2021/01/02 19:23:47;;;;;;;14.97;12.93;;;5.40;98.00;;;;;;10491384;28;20209;-82
2021/01/02 19:28:49;;;;;;;15.03;13.43;;;5.40;98.00;;;;;;10486912;28;20353;-82
2021/01/02 19:33:52;;;;;;;13.23;12.00;;;5.40;98.00;;;;;;10494611;28;20215;-83
2021/01/02 19:38:54;;;;;;;14.27;12.77;;;5.40;97.60;;;;;;10513775;28;20557;-83
2021/01/02 19:43:55;;;;;;;14.83;13.33;;;5.30;97.40;;;;;;10509306;28;20224;-82
2021/01/02 19:48:58;;;;;;;14.80;13.30;;;5.30;97.40;;;;;;10491522;28;20212;-83
2021/01/02 19:54:00;;;;;;;15.47;12.97;;;5.30;97.80;;;;;;10481718;28;20216;-83
2021/01/02 19:59:02;;;;;;;16.07;13.60;;;5.30;97.80;;;;;;10485578;28;20207;-83
2021/01/02 20:04:05;;;;;;;15.63;13.80;;;5.30;97.80;;;;;;10466099;28;20235;-82
2021/01/02 20:09:07;;;;;;;15.50;14.00;;;5.30;97.90;;;;;;10480426;28;20217;-82
2021/01/02 20:14:08;;;;;;;16.90;15.10;;;5.20;97.40;;;;;;10501598;28;20624;-83
2021/01/02 20:19:12;;;;;;;16.93;15.13;;;5.20;97.60;;;;;;10469484;28;20208;-83
2021/01/02 20:24:15;;;;;;;18.47;15.23;;;5.20;96.70;;;;;;10482297;28;20213;-82
2021/01/02 20:29:20;;;;;;;18.13;15.23;;;5.20;96.40;;;;;;10479745;28;20217;-83
2021/01/02 20:34:23;;;;;;;18.70;15.33;;;5.20;96.40;;;;;;10488649;28;20216;-83
2021/01/02 20:39:26;;;;;;;19.57;15.90;;;5.20;96.30;;;;;;10520532;28;20200;-83
2021/01/02 20:44:28;;;;;;;18.57;16.03;;;5.20;95.90;;;;;;10478354;28;20242;-83
2021/01/02 20:49:31;;;;;;;20.70;17.30;;;5.20;95.80;;;;;;10481701;28;20211;-82
2021/01/02 20:54:33;;;;;;;20.73;17.07;;;5.20;95.80;;;;;;10481028;28;20624;-83
2021/01/02 20:59:34;;;;;;;18.30;14.93;;;5.20;95.60;;;;;;10476106;28;20197;-83
2021/01/02 21:04:37;;;;;;;19.07;16.17;;;5.20;95.80;;;;;;10490362;28;20216;-83
2021/01/02 21:09:40;;;;;;;21.93;17.03;;;5.20;95.20;;;;;;10487469;28;20204;-83
2021/01/02 21:14:43;;;;;;;21.30;17.23;;;5.20;95.20;;;;;;10461838;28;20232;-83
2021/01/02 21:19:46;;;;;;;20.80;17.20;;;5.20;94.90;;;;;;10505031;28;20290;-82
2021/01/02 21:24:49;;;;;;;22.53;17.23;;;5.20;95.00;;;;;;10478835;28;20243;-82
2021/01/02 21:29:52;;;;;;;21.87;16.50;;;5.10;95.20;;;;;;10460718;28;20693;-83
2021/01/02 21:34:55;;;;;;;18.43;16.37;;;5.10;95.70;;;;;;10502312;28;20223;-83
2021/01/02 21:39:57;;;;;;;19.63;16.73;;;5.20;95.70;;;;;;10481499;28;20772;-83
2021/01/02 21:44:59;;;;;;;17.73;15.80;;;5.20;96.00;;;;;;10501391;28;20588;-83
2021/01/02 21:50:02;;;;;;;17.80;16.00;;;5.20;96.10;;;;;;10494398;28;20207;-82
2021/01/02 21:55:05;;;;;;;16.27;14.40;;;5.20;96.80;;;;;;10499075;28;20799;-83
2021/01/02 22:00:09;;;;;;;14.77;13.37;;;5.30;96.60;;;;;;10492842;28;20205;-83
2021/01/02 22:05:15;;;;;;;12.70;11.40;;;5.30;96.30;;;;;;10482432;28;20209;-83
2021/01/02 22:10:17;;;;;;;12.27;10.40;;;5.30;96.20;;;;;;10487025;28;20198;-84
2021/01/02 22:15:19;;;;;;;12.87;11.67;;;5.20;95.90;;;;;;10501797;28;20248;-83
2021/01/02 22:20:21;;;;;;;11.67;10.57;;;5.20;96.20;;;;;;10486575;28;20350;-83
2021/01/02 22:25:23;;;;;;;11.90;10.60;;;5.20;95.80;;;;;;10480875;28;20237;-83
2021/01/02 22:30:25;;;;;;;12.13;10.77;;;5.20;95.70;;;;;;10480040;28;20197;-83
2021/01/02 22:35:27;;;;;;;11.97;10.80;;;5.10;95.80;;;;;;10495523;28;20212;-83
2021/01/02 22:40:29;;;;;;;12.00;10.50;;;5.10;96.20;;;;;;10511280;28;20558;-83
2021/01/02 22:45:31;;;;;;;11.70;10.60;;;5.20;96.70;;;;;;10517908;28;20220;-82
2021/01/02 22:50:33;;;;;;;11.50;10.40;;;5.10;95.90;;;;;;10495120;28;20193;-81
2021/01/02 22:55:36;;;;;;;10.90;9.90;;;5.10;96.30;;;;;;10470365;28;20196;-82
2021/01/02 23:00:46;;;;;;;10.47;9.37;;;5.10;96.30;;;;;;10495678;28;20208;-82
2021/01/02 23:05:49;;;;;;;10.47;9.37;;;5.00;96.50;;;;;;10495227;28;20220;-81
2021/01/02 23:10:50;;;;;;;10.27;9.27;;;5.00;96.50;;;;;;10494154;28;20561;-81
2021/01/02 23:15:54;;;;;;;11.30;10.10;;;5.00;96.40;;;;;;10463233;28;20193;-82
2021/01/02 23:20:57;;;;;;;10.17;9.27;;;5.00;96.80;;;;;;10474000;28;20777;-83
2021/01/02 23:25:58;;;;;;;10.57;9.47;;;5.10;96.50;;;;;;10482277;28;20221;-83
2021/01/02 23:31:00;;;;;;;11.30;10.20;;;5.00;96.40;;;;;;10510212;28;20658;-83
2021/01/02 23:36:03;;;;;;;10.60;9.60;;;5.00;96.00;;;;;;10484728;28;20217;-81
2021/01/02 23:41:04;;;;;;;9.53;8.63;;;5.00;96.20;;;;;;10507586;28;20227;-83
2021/01/02 23:46:06;;;;;;;10.50;9.50;;;4.90;96.50;;;;;;10535527;28;20584;-82
2021/01/02 23:51:08;;;;;;;9.87;9.07;;;5.00;96.50;;;;;;10587082;28;20573;-82
2021/01/02 23:56:11;;;;;;;9.63;8.73;;;4.90;96.50;;;;;;10549732;28;20216;-81
